createdAt,value
2023-02-19T00:00:41.086Z,97459.66
2023-02-19T00:03:25.906Z,97467.75
2023-02-19T00:06:10.754Z,97467.66
2023-02-19T00:08:55.805Z,97456.13
2023-02-19T00:11:40.640Z,97469.09
2023-02-19T00:14:25.615Z,97461.09
2023-02-19T00:17:10.502Z,97459.28
2023-02-19T00:19:55.419Z,97460.94
2023-02-19T00:22:40.037Z,97461.59
2023-02-19T00:25:24.976Z,97457.53
2023-02-19T00:28:09.840Z,97463.28
2023-02-19T00:30:54.633Z,97458.53
2023-02-19T00:33:39.480Z,97458.19
2023-02-19T00:36:24.365Z,97459.00
2023-02-19T00:39:09.381Z,97453.88
2023-02-19T00:41:54.172Z,97450.25
2023-02-19T00:44:38.975Z,97454.59
2023-02-19T00:47:23.817Z,97450.16
2023-02-19T00:50:08.765Z,97452.88
2023-02-19T00:52:53.601Z,97464.06
2023-02-19T00:55:38.620Z,97461.75
2023-02-19T00:58:23.541Z,97464.13
2023-02-19T01:01:08.652Z,97459.41
2023-02-19T01:03:53.780Z,97461.31
2023-02-19T01:06:38.636Z,97456.53
2023-02-19T01:09:23.686Z,97459.28
2023-02-19T01:12:08.367Z,97451.22
2023-02-19T01:14:53.328Z,97451.75
2023-02-19T01:17:38.150Z,97447.19
2023-02-19T01:20:23.127Z,97450.22
2023-02-19T01:23:08.052Z,97448.91
2023-02-19T01:25:52.891Z,97455.06
2023-02-19T01:28:37.865Z,97460.25
2023-02-19T01:31:22.799Z,97454.91
2023-02-19T01:34:08.009Z,97453.59
2023-02-19T01:36:52.878Z,97448.56
2023-02-19T01:39:37.955Z,97454.19
2023-02-19T01:42:22.820Z,97440.31
2023-02-19T01:45:07.761Z,97440.53
2023-02-19T01:47:52.593Z,97436.81
2023-02-19T01:50:37.501Z,97432.88
2023-02-19T01:53:22.472Z,97439.28
2023-02-19T01:56:07.415Z,97439.13
2023-02-19T01:58:52.398Z,97431.03
2023-02-19T02:01:37.219Z,97427.34
2023-02-19T02:04:22.145Z,97430.75
2023-02-19T02:07:06.886Z,97425.00
2023-02-19T02:09:51.842Z,97415.44
2023-02-19T02:12:36.809Z,97409.66
2023-02-19T02:15:21.619Z,97412.84
2023-02-19T02:18:06.550Z,97406.72
2023-02-19T02:20:51.414Z,97412.13
2023-02-19T02:23:36.425Z,97407.69
2023-02-19T02:26:21.344Z,97410.53
2023-02-19T02:29:06.258Z,97409.75
2023-02-19T02:31:51.178Z,97404.28
2023-02-19T02:34:36.466Z,97407.34
2023-02-19T02:37:21.362Z,97407.47
2023-02-19T02:40:06.193Z,97400.91
2023-02-19T02:42:51.179Z,97388.75
2023-02-19T02:45:36.105Z,97394.25
2023-02-19T02:48:21.334Z,97403.50
2023-02-19T02:51:06.121Z,97398.75
2023-02-19T02:53:51.024Z,97390.94
2023-02-19T02:56:35.854Z,97388.34
2023-02-19T02:59:20.747Z,97392.06
2023-02-19T03:02:05.761Z,97392.94
2023-02-19T03:04:50.760Z,97389.72
2023-02-19T03:07:35.741Z,97390.44
2023-02-19T03:10:20.491Z,97389.78
2023-02-19T03:13:05.352Z,97386.94
2023-02-19T03:15:50.081Z,97381.16
2023-02-19T03:18:34.928Z,97382.16
2023-02-19T03:21:19.804Z,97379.41
2023-02-19T03:24:04.609Z,97391.47
2023-02-19T03:26:49.618Z,97383.13
2023-02-19T03:29:34.578Z,97383.91
2023-02-19T03:32:19.506Z,97375.16
2023-02-19T03:35:04.325Z,97366.38
2023-02-19T03:37:49.302Z,97361.59
2023-02-19T03:40:34.303Z,97370.53
2023-02-19T03:43:19.245Z,97372.25
2023-02-19T03:46:03.966Z,97361.88
2023-02-19T03:48:48.929Z,97369.59
2023-02-19T03:51:33.848Z,97369.16
2023-02-19T03:54:18.609Z,97368.16
2023-02-19T03:57:03.585Z,97371.09
2023-02-19T03:59:48.630Z,97373.81
2023-02-19T04:02:33.578Z,97379.91
2023-02-19T04:05:18.337Z,97370.91
2023-02-19T04:08:03.237Z,97372.03
2023-02-19T04:10:48.127Z,97386.84
2023-02-19T04:13:33.007Z,97386.50
2023-02-19T04:16:17.924Z,97381.56
2023-02-19T04:19:02.827Z,97387.31
2023-02-19T04:21:47.719Z,97399.41
2023-02-19T04:24:32.474Z,97396.22
2023-02-19T04:27:17.507Z,97392.88
2023-02-19T04:30:02.424Z,97400.72
2023-02-19T04:32:47.797Z,97403.00
2023-02-19T04:35:32.637Z,97414.75
2023-02-19T04:38:17.456Z,97426.41
2023-02-19T04:41:02.317Z,97436.34
2023-02-19T04:43:47.101Z,97433.34
2023-02-19T04:46:32.107Z,97433.06
2023-02-19T04:49:16.903Z,97443.28
2023-02-19T04:52:01.907Z,97438.31
2023-02-19T04:54:46.698Z,97440.22
2023-02-19T04:57:31.512Z,97440.28
2023-02-19T05:00:16.316Z,97438.31
2023-02-19T05:03:01.348Z,97446.13
2023-02-19T05:05:46.209Z,97449.97
2023-02-19T05:08:31.034Z,97444.72
2023-02-19T05:11:15.972Z,97422.63
2023-02-19T05:14:00.843Z,97412.19
2023-02-19T05:16:45.820Z,97430.78
2023-02-19T05:19:30.601Z,97427.00
2023-02-19T05:22:15.595Z,97418.78
2023-02-19T05:25:00.343Z,97421.91
2023-02-19T05:27:45.215Z,97407.41
2023-02-19T05:30:30.046Z,97396.31
2023-02-19T05:33:14.920Z,97390.34
2023-02-19T05:35:59.897Z,97385.97
2023-02-19T05:38:44.738Z,97389.78
2023-02-19T05:41:29.614Z,97380.41
2023-02-19T05:44:14.387Z,97375.69
2023-02-19T05:46:59.280Z,97367.78
2023-02-19T05:49:44.052Z,97362.41
2023-02-19T05:52:28.956Z,97369.47
2023-02-19T05:55:13.692Z,97387.09
2023-02-19T05:57:58.732Z,97390.22
2023-02-19T06:00:43.627Z,97383.78
2023-02-19T06:03:28.518Z,97377.06
2023-02-19T06:06:13.408Z,97378.88
2023-02-19T06:08:58.279Z,97377.63
2023-02-19T06:11:43.216Z,97380.63
2023-02-19T06:14:28.034Z,97380.06
2023-02-19T06:17:12.810Z,97385.47
2023-02-19T06:19:57.599Z,97409.38
2023-02-19T06:22:42.525Z,97407.94
2023-02-19T06:25:27.480Z,97407.56
2023-02-19T06:28:12.272Z,97409.09
2023-02-19T06:30:57.154Z,97418.38
2023-02-19T06:33:42.062Z,97432.22
2023-02-19T06:36:27.104Z,97437.69
2023-02-19T06:39:11.949Z,97448.09
2023-02-19T06:41:56.653Z,97454.13
2023-02-19T06:44:41.420Z,97459.44
2023-02-19T06:47:26.417Z,97456.72
2023-02-19T06:50:11.313Z,97458.34
2023-02-19T06:52:56.181Z,97455.88
2023-02-19T06:55:41.249Z,97446.25
2023-02-19T06:58:26.052Z,97462.94
2023-02-19T07:01:11.451Z,97460.09
2023-02-19T07:03:56.335Z,97460.13
2023-02-19T07:06:41.276Z,97462.59
2023-02-19T07:09:25.999Z,97468.72
2023-02-19T07:12:10.773Z,97475.38
2023-02-19T07:14:55.556Z,97481.84
2023-02-19T07:17:40.501Z,97486.50
2023-02-19T07:20:25.506Z,97489.22
2023-02-19T07:23:10.387Z,97492.66
2023-02-19T07:25:55.248Z,97492.09
2023-02-19T07:28:40.213Z,97488.50
2023-02-19T07:31:25.140Z,97489.38
2023-02-19T07:34:10.378Z,97482.44
2023-02-19T07:36:55.337Z,97489.06
2023-02-19T07:39:40.303Z,97500.44
2023-02-19T07:42:25.223Z,97511.16
2023-02-19T07:45:10.325Z,97508.72
2023-02-19T07:47:55.045Z,97519.25
2023-02-19T07:50:40.046Z,97513.44
2023-02-19T07:53:24.870Z,97521.78
2023-02-19T07:56:09.721Z,97524.53
2023-02-19T07:58:54.476Z,97522.13
2023-02-19T08:01:39.378Z,97525.88
2023-02-19T08:04:24.185Z,97532.69
2023-02-19T08:07:09.017Z,97529.97
2023-02-19T08:09:53.980Z,97541.91
2023-02-19T08:12:38.804Z,97540.13
2023-02-19T08:15:23.796Z,97543.72
2023-02-19T08:18:08.660Z,97542.97
2023-02-19T08:20:53.615Z,97547.38
2023-02-19T08:23:38.427Z,97543.91
2023-02-19T08:26:23.260Z,97547.34
2023-02-19T08:29:08.158Z,97550.13
2023-02-19T08:31:53.078Z,97545.28
2023-02-19T08:34:37.963Z,97546.78
2023-02-19T08:37:22.617Z,97542.41
2023-02-19T08:40:07.593Z,97538.25
2023-02-19T08:42:52.350Z,97543.88
2023-02-19T08:45:37.325Z,97555.84
2023-02-19T08:48:22.237Z,97550.81
2023-02-19T08:51:07.118Z,97555.25
2023-02-19T08:53:51.949Z,97550.72
2023-02-19T08:56:36.789Z,97552.81
2023-02-19T08:59:21.756Z,97549.69
2023-02-19T09:02:06.474Z,97543.34
2023-02-19T09:04:51.424Z,97548.66
2023-02-19T09:07:36.449Z,97550.00
2023-02-19T09:10:21.472Z,97549.44
2023-02-19T09:13:06.269Z,97552.97
2023-02-19T09:15:51.395Z,97551.72
2023-02-19T09:18:36.200Z,97551.50
2023-02-19T09:21:21.104Z,97555.63
2023-02-19T09:24:06.106Z,97554.94
2023-02-19T09:26:50.881Z,97548.03
2023-02-19T09:29:35.794Z,97561.25
2023-02-19T09:32:20.578Z,97551.13
2023-02-19T09:35:05.486Z,97549.03
2023-02-19T09:37:50.384Z,97549.75
2023-02-19T09:40:35.345Z,97559.31
2023-02-19T09:43:20.155Z,97552.25
2023-02-19T09:46:05.089Z,97552.59
2023-02-19T09:48:50.023Z,97547.03
2023-02-19T09:51:34.921Z,97543.84
2023-02-19T09:54:19.890Z,97542.34
2023-02-19T09:57:04.786Z,97539.66
2023-02-19T09:59:50.157Z,97555.66
2023-02-19T10:02:35.049Z,97558.34
2023-02-19T10:05:20.075Z,97544.81
2023-02-19T10:08:04.939Z,97551.28
2023-02-19T10:10:50.006Z,97550.13
2023-02-19T10:13:34.951Z,97553.38
2023-02-19T10:16:20.655Z,97558.94
2023-02-19T10:19:05.624Z,97543.09
2023-02-19T10:21:50.953Z,97549.09
2023-02-19T10:24:38.413Z,97562.25
2023-02-19T10:27:23.799Z,97552.19
2023-02-19T10:30:08.711Z,97553.41
2023-02-19T10:32:53.589Z,97551.69
2023-02-19T10:35:38.445Z,97552.81
2023-02-19T10:38:23.285Z,97561.38
2023-02-19T10:41:08.164Z,97563.94
2023-02-19T10:43:53.023Z,97557.72
2023-02-19T10:46:37.902Z,97560.66
2023-02-19T10:49:22.673Z,97552.31
2023-02-19T10:52:07.616Z,97550.97
2023-02-19T10:54:52.538Z,97548.19
2023-02-19T10:57:37.429Z,97541.94
2023-02-19T11:00:22.220Z,97544.13
2023-02-19T11:03:07.167Z,97550.94
2023-02-19T11:05:52.138Z,97543.66
2023-02-19T11:08:37.197Z,97534.38
2023-02-19T11:11:21.963Z,97535.72
2023-02-19T11:14:06.805Z,97533.53
2023-02-19T11:16:51.683Z,97532.69
2023-02-19T11:19:36.573Z,97531.16
2023-02-19T11:22:21.534Z,97528.19
2023-02-19T11:25:06.364Z,97525.03
2023-02-19T11:27:51.341Z,97518.94
2023-02-19T11:30:36.555Z,97511.69
2023-02-19T11:33:21.482Z,97503.94
2023-02-19T11:36:06.277Z,97508.28
2023-02-19T11:38:51.215Z,97499.66
2023-02-19T11:41:36.121Z,97496.22
2023-02-19T11:44:21.308Z,97495.22
2023-02-19T11:47:06.210Z,97490.31
2023-02-19T11:49:50.975Z,97478.72
2023-02-19T11:52:35.826Z,97480.69
2023-02-19T11:55:20.647Z,97468.13
2023-02-19T11:58:05.505Z,97465.19
2023-02-19T12:00:50.425Z,97466.41
2023-02-19T12:03:35.406Z,97456.34
2023-02-19T12:06:20.451Z,97460.88
2023-02-19T12:09:05.106Z,97449.47
2023-02-19T12:11:50.016Z,97453.94
2023-02-19T12:14:34.809Z,97439.94
2023-02-19T12:17:19.753Z,97441.97
2023-02-19T12:20:04.535Z,97434.97
2023-02-19T12:22:49.653Z,97427.28
2023-02-19T12:25:34.888Z,97427.03
2023-02-19T12:28:19.986Z,97429.63
2023-02-19T12:31:05.109Z,97429.72
2023-02-19T12:33:50.030Z,97427.94
2023-02-19T12:36:34.992Z,97430.63
2023-02-19T12:39:19.798Z,97426.75
2023-02-19T12:42:04.609Z,97431.69
2023-02-19T12:44:49.511Z,97418.56
2023-02-19T12:47:34.466Z,97425.66
2023-02-19T12:50:19.308Z,97416.13
2023-02-19T12:53:04.193Z,97419.56
2023-02-19T12:55:49.321Z,97418.56
2023-02-19T12:58:34.092Z,97416.88
2023-02-19T13:01:19.255Z,97414.34
2023-02-19T13:04:04.047Z,97413.53
2023-02-19T13:06:50.425Z,97410.09
2023-02-19T13:09:36.004Z,97405.84
2023-02-19T13:12:20.918Z,97392.88
2023-02-19T13:15:05.819Z,97397.06
2023-02-19T13:17:50.652Z,97394.84
2023-02-19T13:20:35.670Z,97397.00
2023-02-19T13:23:20.595Z,97378.47
2023-02-19T13:26:05.451Z,97377.59
2023-02-19T13:28:50.304Z,97382.63
2023-02-19T13:31:35.597Z,97387.53
2023-02-19T13:34:20.869Z,97383.75
2023-02-19T13:37:05.761Z,97376.94
2023-02-19T13:39:50.634Z,97375.84
2023-02-19T13:42:35.970Z,97373.56
2023-02-19T13:45:21.151Z,97372.25
2023-02-19T13:48:06.288Z,97378.22
2023-02-19T13:50:51.063Z,97372.31
2023-02-19T13:53:35.949Z,97373.66
2023-02-19T13:56:20.850Z,97372.53
2023-02-19T13:59:05.757Z,97360.03
2023-02-19T14:01:50.620Z,97361.22
2023-02-19T14:04:35.582Z,97362.56
2023-02-19T14:07:20.427Z,97369.81
2023-02-19T14:10:05.237Z,97365.19
2023-02-19T14:12:50.061Z,97372.34
2023-02-19T14:15:35.034Z,97369.28
2023-02-19T14:18:19.793Z,97362.63
2023-02-19T14:21:04.620Z,97354.59
2023-02-19T14:23:49.509Z,97352.69
2023-02-19T14:26:34.338Z,97342.66
2023-02-19T14:29:19.293Z,97335.00
2023-02-19T14:32:04.134Z,97328.63
2023-02-19T14:34:48.848Z,97319.06
2023-02-19T14:37:33.602Z,97318.06
2023-02-19T14:40:18.682Z,97318.91
2023-02-19T14:43:03.416Z,97324.97
2023-02-19T14:45:48.369Z,97331.50
2023-02-19T14:48:33.357Z,97325.59
2023-02-19T14:51:18.260Z,97330.97
2023-02-19T14:54:03.097Z,97327.34
2023-02-19T14:56:47.920Z,97341.84
2023-02-19T14:59:32.892Z,97345.84
2023-02-19T15:02:17.721Z,97359.13
2023-02-19T15:05:02.735Z,97359.94
2023-02-19T15:07:48.000Z,97350.81
2023-02-19T15:10:32.905Z,97360.13
2023-02-19T15:13:17.814Z,97356.41
2023-02-19T15:16:02.739Z,97359.66
2023-02-19T15:18:47.600Z,97354.25
2023-02-19T15:21:32.465Z,97356.47
2023-02-19T15:24:17.213Z,97356.22
2023-02-19T15:27:01.943Z,97352.50
2023-02-19T15:29:46.833Z,97348.63
2023-02-19T15:32:31.669Z,97345.44
2023-02-19T15:35:16.663Z,97353.56
2023-02-19T15:38:01.618Z,97363.22
2023-02-19T15:40:46.553Z,97375.91
2023-02-19T15:43:31.568Z,97383.59
2023-02-19T15:46:16.396Z,97368.88
2023-02-19T15:49:01.405Z,97367.00
2023-02-19T15:51:46.277Z,97366.34
2023-02-19T15:54:31.304Z,97371.19
2023-02-19T15:57:16.251Z,97370.59
2023-02-19T16:00:01.273Z,97382.41
2023-02-19T16:02:46.191Z,97378.00
2023-02-19T16:05:31.034Z,97382.63
2023-02-19T16:08:15.996Z,97376.94
2023-02-19T16:11:00.863Z,97385.72
2023-02-19T16:13:45.854Z,97382.06
2023-02-19T16:16:30.824Z,97384.75
2023-02-19T16:19:15.624Z,97394.66
2023-02-19T16:22:00.390Z,97399.75
2023-02-19T16:24:45.373Z,97406.50
2023-02-19T16:27:30.291Z,97386.69
2023-02-19T16:30:15.268Z,97388.19
2023-02-19T16:33:00.159Z,97391.41
2023-02-19T16:35:45.088Z,97394.03
2023-02-19T16:38:29.978Z,97400.63
2023-02-19T16:41:14.692Z,97415.97
2023-02-19T16:43:59.596Z,97401.25
2023-02-19T16:46:44.382Z,97410.69
2023-02-19T16:49:29.285Z,97405.00
2023-02-19T16:52:14.069Z,97413.63
2023-02-19T16:54:58.942Z,97426.41
2023-02-19T16:57:43.934Z,97436.94
2023-02-19T17:00:28.781Z,97440.56
2023-02-19T17:03:13.823Z,97445.13
2023-02-19T17:05:58.690Z,97447.41
2023-02-19T17:08:43.626Z,97446.59
2023-02-19T17:11:28.684Z,97446.16
2023-02-19T17:14:13.849Z,97457.81
2023-02-19T17:17:01.117Z,97451.59
2023-02-19T17:19:47.028Z,97472.09
2023-02-19T17:22:31.912Z,97473.34
2023-02-19T17:25:16.779Z,97470.50
2023-02-19T17:28:01.849Z,97474.06
2023-02-19T17:30:46.760Z,97478.47
2023-02-19T17:33:31.511Z,97475.09
2023-02-19T17:36:16.433Z,97481.09
2023-02-19T17:39:01.943Z,97486.38
2023-02-19T17:41:46.884Z,97495.66
2023-02-19T17:44:31.906Z,97489.00
2023-02-19T17:47:17.123Z,97488.81
2023-02-19T17:50:01.848Z,97492.38
2023-02-19T17:52:47.310Z,97506.78
2023-02-19T17:55:32.562Z,97500.03
2023-02-19T17:58:17.301Z,97496.22
2023-02-19T18:01:02.412Z,97506.53
2023-02-19T18:03:47.388Z,97510.47
2023-02-19T18:06:32.629Z,97515.50
2023-02-19T18:09:17.773Z,97509.25
2023-02-19T18:12:02.999Z,97514.06
2023-02-19T18:14:48.071Z,97516.09
2023-02-19T18:17:32.886Z,97515.19
2023-02-19T18:20:17.837Z,97510.78
2023-02-19T18:23:02.753Z,97527.34
2023-02-19T18:25:47.754Z,97529.53
2023-02-19T18:28:32.686Z,97525.25
2023-02-19T18:31:17.528Z,97533.47
2023-02-19T18:34:02.901Z,97538.81
2023-02-19T18:36:47.785Z,97538.34
2023-02-19T18:39:33.260Z,97526.97
2023-02-19T18:42:18.594Z,97526.31
2023-02-19T18:45:03.516Z,97522.03
2023-02-19T18:47:48.385Z,97528.25
2023-02-19T18:50:33.362Z,97525.50
2023-02-19T18:53:18.478Z,97529.38
2023-02-19T18:56:03.729Z,97529.47
2023-02-19T18:58:50.347Z,97527.97
2023-02-19T19:01:35.701Z,97527.72
2023-02-19T19:04:21.332Z,97528.34
2023-02-19T19:07:06.711Z,97529.63
2023-02-19T19:09:51.471Z,97531.94
2023-02-19T19:12:36.616Z,97539.94
2023-02-19T19:15:21.833Z,97538.63
2023-02-19T19:18:06.691Z,97541.94
2023-02-19T19:20:51.430Z,97535.44
2023-02-19T19:23:36.481Z,97537.06
2023-02-19T19:26:21.264Z,97528.81
2023-02-19T19:29:06.232Z,97542.41
2023-02-19T19:31:51.310Z,97536.88
2023-02-19T19:34:36.545Z,97545.00
2023-02-19T19:37:21.641Z,97547.09
2023-02-19T19:40:06.605Z,97552.88
2023-02-19T19:42:51.849Z,97553.25
2023-02-19T19:45:36.880Z,97553.72
2023-02-19T19:48:21.720Z,97567.59
2023-02-19T19:51:06.546Z,97554.56
2023-02-19T19:53:51.411Z,97551.88
2023-02-19T19:56:36.481Z,97552.59
2023-02-19T19:59:21.249Z,97550.13
2023-02-19T20:02:06.177Z,97547.28
2023-02-19T20:04:51.009Z,97551.13
2023-02-19T20:07:35.838Z,97537.63
2023-02-19T20:10:20.738Z,97545.06
2023-02-19T20:13:05.556Z,97539.38
2023-02-19T20:15:51.156Z,97540.69
2023-02-19T20:18:36.339Z,97538.28
2023-02-19T20:21:21.712Z,97543.13
2023-02-19T20:24:06.516Z,97548.94
2023-02-19T20:26:51.391Z,97572.44
2023-02-19T20:29:36.251Z,97571.63
2023-02-19T20:32:21.300Z,97564.88
2023-02-19T20:35:06.174Z,97573.66
2023-02-19T20:37:50.948Z,97580.97
2023-02-19T20:40:35.929Z,97579.53
2023-02-19T20:43:20.754Z,97577.25
2023-02-19T20:46:05.882Z,97582.25
2023-02-19T20:48:51.950Z,97582.16
2023-02-19T20:51:36.856Z,97591.16
2023-02-19T20:54:21.703Z,97597.34
2023-02-19T20:57:06.763Z,97608.19
2023-02-19T20:59:51.625Z,97607.88
2023-02-19T21:02:36.611Z,97609.41
2023-02-19T21:05:21.567Z,97607.22
2023-02-19T21:08:06.323Z,97618.66
2023-02-19T21:10:51.282Z,97620.28
2023-02-19T21:13:36.110Z,97617.41
2023-02-19T21:16:21.013Z,97617.56
2023-02-19T21:19:05.819Z,97601.44
2023-02-19T21:21:50.729Z,97597.53
2023-02-19T21:24:35.524Z,97600.19
2023-02-19T21:27:20.469Z,97601.00
2023-02-19T21:30:05.489Z,97601.59
2023-02-19T21:32:50.192Z,97610.66
2023-02-19T21:35:35.092Z,97604.09
2023-02-19T21:38:20.043Z,97612.25
2023-02-19T21:41:04.998Z,97616.22
2023-02-19T21:43:49.884Z,97615.50
2023-02-19T21:46:34.898Z,97622.59
2023-02-19T21:49:19.765Z,97622.19
2023-02-19T21:52:04.675Z,97624.50
2023-02-19T21:54:49.711Z,97619.28
2023-02-19T21:57:34.520Z,97633.72
2023-02-19T22:00:19.448Z,97642.44
2023-02-19T22:03:05.398Z,97634.47
2023-02-19T22:05:50.543Z,97639.47
2023-02-19T22:08:35.308Z,97637.53
2023-02-19T22:11:20.271Z,97628.72
2023-02-19T22:14:05.186Z,97625.81
2023-02-19T22:16:50.052Z,97630.25
2023-02-19T22:19:34.922Z,97627.34
2023-02-19T22:22:19.756Z,97637.34
2023-02-19T22:25:04.745Z,97641.56
2023-02-19T22:27:49.552Z,97635.31
2023-02-19T22:30:34.409Z,97631.84
2023-02-19T22:33:19.212Z,97635.84
2023-02-19T22:36:04.101Z,97641.09
2023-02-19T22:38:49.049Z,97642.75
2023-02-19T22:41:33.797Z,97644.84
2023-02-19T22:44:18.837Z,97648.44
2023-02-19T22:47:03.591Z,97648.22
2023-02-19T22:49:48.679Z,97648.91
2023-02-19T22:52:33.441Z,97644.53
2023-02-19T22:55:18.514Z,97650.38
2023-02-19T22:58:03.357Z,97645.50
2023-02-19T23:00:48.227Z,97641.19
2023-02-19T23:03:33.080Z,97645.06
2023-02-19T23:06:17.876Z,97652.91
2023-02-19T23:09:02.811Z,97651.16
2023-02-19T23:11:47.580Z,97645.97
2023-02-19T23:14:32.452Z,97646.81
2023-02-19T23:17:17.307Z,97646.22
2023-02-19T23:20:02.244Z,97648.53
2023-02-19T23:22:47.184Z,97647.28
2023-02-19T23:25:32.132Z,97653.34
2023-02-19T23:28:16.935Z,97644.44
2023-02-19T23:31:01.765Z,97655.66
2023-02-19T23:33:46.789Z,97650.91
2023-02-19T23:36:31.771Z,97660.91
2023-02-19T23:39:16.653Z,97661.84
2023-02-19T23:42:01.485Z,97662.91
2023-02-19T23:44:46.417Z,97665.38
2023-02-19T23:47:31.129Z,97665.66
2023-02-19T23:50:16.025Z,97662.75
2023-02-19T23:53:00.910Z,97655.00
2023-02-19T23:55:45.858Z,97653.94
2023-02-19T23:58:30.805Z,97655.50
